Friday, October 31, 2014, 5:01 AM EDT
Back to Local

KMPO, Mt Pocono Pocono Mountains

Location: Pocono Summit, PA, United States Lat: 41.133
Local Time: 5:01 AM EDT ( 9:01 GMT) Lon: -75.383
Time Zone: US/Eastern Elev: 1915 ft

Show me the last for .
Show Decoded

2014-10-31 02:53 METAR KMPO 310653Z AUTO 00000KT 10SM CLR M02/M03 A2999 RMK AO2 SLP171 I1000
                 T10221033 =
2014-10-31 01:53 METAR KMPO 310553Z AUTO 00000KT 10SM CLR M01/M03 A3000 RMK AO2 SLP173 T10111033
                 10050 21028 55000 =
2014-10-31 00:53 METAR KMPO 310453Z AUTO 00000KT 10SM CLR M03/M04 A2999 RMK AO2 SLP171 T10281044
                 400781028 =
2014-10-30 23:53 METAR KMPO 310353Z AUTO 13003KT 10SM CLR M01/M03 A2999 RMK AO2 SLP172 T10111028
                 =
2014-10-30 22:53 METAR KMPO 310253Z AUTO 33004KT 10SM CLR 01/M02 A3000 RMK AO2 SLP172 T00111017
                 58001 =
2014-10-30 21:53 METAR KMPO 310153Z AUTO 35004KT 10SM CLR 03/M02 A3000 RMK AO2 SLP172 T00331017 =
2014-10-30 20:53 METAR KMPO 310053Z AUTO 32007KT 10SM CLR 04/M01 A3000 RMK AO2 SLP172 T00391011 =
2014-10-30 19:53 METAR KMPO 302353Z AUTO 31006KT 10SM FEW034 05/M01 A3000 RMK AO2 SLP174
                 T00501011 10072 20050 50003 =
2014-10-30 18:53 METAR KMPO 302253Z AUTO 32006KT 10SM OVC034 06/M01 A3001 RMK AO2 SLP177
                 T00561006 =
2014-10-30 17:53 METAR KMPO 302153Z AUTO 31007KT 10SM OVC031 06/M01 A2999 RMK AO2 SLP171
                 T00611006 =
2014-10-30 17:21 METAR KMPO 302121Z AUTO 32007KT 290V350 10SM OVC030 07/00 A2999 RMK AO2
                 T00670000 =
2014-10-30 16:53 METAR KMPO 302053Z AUTO 31007G16KT 10SM OVC028 07/00 A2999 RMK AO2 SLP168
                 T00670000 53000 =
2014-10-30 15:53 METAR KMPO 301953Z AUTO 30009KT 10SM OVC028 07/00 A2998 RMK AO2 SLP165 T00670000
                 $ =
2014-10-30 14:53 METAR KMPO 301853Z AUTO 32007KT 10SM OVC027 07/00 A2998 RMK AO2 SLP166 T00670000
                 $ =
2014-10-30 13:53 METAR KMPO 301753Z AUTO 34010KT 10SM OVC028 07/00 A2999 RMK AO2 SLP167 T00720000
                 10078 20011 58002 $ =
2014-10-30 13:01 METAR KMPO 301701Z AUTO 32007G19KT 10SM 07/00 A2999 RMK AO2 T00720000 $ =
2014-10-30 12:53 METAR KMPO 301653Z AUTO 31012G19KT 10SM OVC027 07/01 A2999 RMK AO2 SLP168
                 T00720006 $ =
2014-10-30 11:53 METAR KMPO 301553Z AUTO 33012G19KT 10SM OVC026 07/01 A3001 RMK AO2 SLP172
                 T00670006 $ =
2014-10-30 10:53 METAR KMPO 301453Z AUTO 32008G14KT 10SM BKN021 BKN026 06/02 A3000 RMK AO2 SLP169
                 T00610017 50005 $ =
2014-10-30 09:53 METAR KMPO 301353Z AUTO 31007KT 10SM SCT016 BKN024 OVC029 06/02 A3001 RMK AO2
                 SLP173 T00560022 $ =
2014-10-30 09:38 METAR KMPO 301338Z AUTO 33009KT 10SM SCT018 BKN024 06/02 A3000 RMK AO2 T00610022
                 $ =
2014-10-30 08:53 METAR KMPO 301253Z AUTO 30005KT 10SM BKN055 03/02 A2999 RMK AO2 SLP169 T00330022
                 $ =
2014-10-30 08:06 METAR KMPO 301206Z AUTO 29005KT 8SM BKN060 02/01 A2998 RMK AO2 T00220011 $ =
2014-10-30 07:53 METAR KMPO 301153Z AUTO 29005KT 2SM BR SCT060 01/00 A2998 RMK AO2 VIS 1V5 SLP165
                 I1001 I6002 T00110000 10028 20000 51009 $ =
2014-10-30 07:39 METAR KMPO 301139Z AUTO 29004KT 1 3/4SM BR CLR 01/M01 A2998 RMK AO2 VIS 1V5
                 I1001 T00061006 $ =
2014-10-30 07:08 METAR KMPO 301108Z AUTO 30004KT 4SM BR FEW003 00/M01 A2997 RMK AO2 I1000
                 T00001006 $ =
2014-10-30 07:00 METAR KMPO 301100Z AUTO 29004KT 2 1/2SM BR FEW003 00/M01 A2996 RMK AO2 I1000
                 T00001006 $ =
2014-10-30 06:53 METAR KMPO 301053Z AUTO 28003KT 3SM BR CLR 00/M01 A2996 RMK AO2 SLP159 I1001
                 T00001006 $ =
2014-10-30 06:44 METAR KMPO 301044Z AUTO 28003KT 4SM BR CLR 00/M01 A2996 RMK AO2 I1001 T00001006
                 $ =
2014-10-30 06:36 METAR KMPO 301036Z AUTO 30003KT 2 1/2SM BR FEW032 00/M01 A2996 RMK AO2 I1001
                 T00001011 $ =
2014-10-30 06:21 METAR KMPO 301021Z AUTO 32003KT 4SM BR FEW032 01/M01 A2996 RMK AO2 I1001
                 T00061006 $ =
2014-10-30 06:12 METAR KMPO 301012Z AUTO 31004KT 1 3/4SM BR FEW032 01/M01 A2995 RMK AO2 VIS 3/4V5
                 I1000 T00061006 $ =
2014-10-30 05:53 METAR KMPO 300953Z AUTO 32004KT 9SM FEW025 01/00 A2995 RMK AO2 SLP155 T00060000
                 $ =
2014-10-30 05:39 METAR KMPO 300939Z AUTO 31003KT 7SM FEW012 01/M01 A2995 RMK AO2 T00061006 $ =
2014-10-30 05:31 METAR KMPO 300931Z AUTO 32004KT 1 1/4SM BR FEW012 01/00 A2994 RMK AO2 T00060000
                 $ =
2014-10-30 05:23 METAR KMPO 300923Z AUTO 31003KT 3/4SM BR VV012 01/00 A2994 RMK AO2 T00110000 $ =
2014-10-30 05:20 METAR KMPO 300920Z AUTO 30003KT 1 1/2SM BR FEW013 FEW020 02/01 A2994 RMK AO2
                 T00170006 $ =
2014-10-30 05:02 METAR KMPO 300902Z AUTO 33004KT 4SM BR FEW019 02/01 A2994 RMK AO2 T00220011 $ =

Support USWX by starting your Amazon purchase here.